To NAV CANADA Home Page Login to a new session Search on AWWS site Feedback and Comments Disclaimer Vers la page française équivalente Tips FAQ What's new on the site To the Forecasts and Observations / NOTAM section To "File a Flight Plan" website Publications and other links Update of the User's profile FIC Telephone Numbers My Weather Data Folder Route Weather Data Regional Weather Data Local Weather Data To the Forecasts and Observations / NOTAM section
Request Generated 10/17/2017 at 01:53:00 UTC . Weather information available at that time is displayed.

METAR/TAF

RED DEER REGIONAL/AB    

METAR CYQF 170100Z 30005KT 15SM FEW050 FEW150 BKN240 15/02 A2961 RMK
SC1AC2CI5 SC TR SLP044 DENSITY ALT 4100FT=
METAR CYQF 170000Z 23007KT 15SM FEW070 BKN180 BKN250 17/02 A2960 RMK
CU1AC6CI1 CU TR SLP037 DENSITY ALT 4300FT=
METAR CYQF 162300Z 19011G16KT 15SM FEW072 BKN190 BKN250 19/02 A2961
RMK CU1AC5CI1 SLP040 DENSITY ALT 4600FT=

TAF CYQF 162338Z 1700/1712 20012KT P6SM FEW070 SCT200
RMK NXT FCST BY 170600Z=
Your time UTC time
Weather data provided by Environment Canada and NAV CANADA